Radar AviationWeather DUATS TFRs Wunderground Accuweather Weather.com

alt : Radar

TAFs

KJXN 302330Z 3100/3124 28010KT P6SM FEW050
   FM310100 25007KT P6SM SKC
   FM311500 27013G20KT P6SM SCT050
KFDY 302327Z 3100/3124 27005KT P6SM SKC
   FM311600 26012G22KT P6SM SCT050
   FM312300 27012KT P6SM VCTS SCT050CB BKN150
KTOL 302327Z 3100/3124 26006KT P6SM SKC
   FM311600 26012G22KT P6SM SCT050
   FM312200 27012KT P6SM VCTS SCT050CB BKN150
KCLE 302327Z 3100/0106 25008KT P6SM SKC
   FM311600 25014G22KT P6SM SCT050
   FM010100 22008KT P6SM VCTS BKN040CB OVC150
   FM010400 25010KT P6SM BKN150
KDTW 302323Z 3100/0106 27012G20KT P6SM FEW070
   FM310100 26006KT P6SM SKC
   FM311600 26014G24KT P6SM SCT070
   FM010100 29006KT P6SM SKC
KFWA 302320Z 3100/3124 27006KT P6SM SKC
   FM311600 26012G22KT P6SM SCT050

METARs

KDUH 310055Z AUTO 28003KT 10SM CLR 25/14 A2998 RMK AO2 T02500135
KFWA 310054Z 24003KT 10SM CLR 22/16 A3002 RMK AO2 SLP160 T02220161
KDTW 310053Z 26008KT 10SM FEW070 26/13 A2995 RMK AO2 SLP136 T02610133
KFDY 310053Z AUTO 30006KT 10SM CLR 24/13 A2999 RMK AO2 SLP146 T02440133
KTDZ 310053Z AUTO 28008KT 10SM CLR 25/13 A2997 RMK AO2 SLP145 T02500133
KTOL 310052Z 25006KT 10SM CLR 24/14 A2997 RMK AO2 SLP144 T02440144
KCLE 310051Z 25005KT 10SM FEW050 24/14 A2998 RMK AO2 SLP144 T02440139
KJXN 302356Z 28007KT 10SM CLR 25/14 A2998 RMK AO2 SLP145 T02500139 10278 20250 58002

alt : Satellite

alt : TFRs